Time;durP1;ratioP1;P1;durP2;ratioP2;P2;SDS_P1;SDS_P2;PMS_P1;PMS_P2;Temp;Humidity;BMP_temperature;BMP_pressure;BME280_temperature;BME280_humidity;BME280_pressure;Samples;Min_cycle;Max_cycle;Signal;HPM_P1;HPM_P2
2022/01/11 00:00:57;;;;;;;17.80;8.53;;;0.90;99.90;;;;;;5094391;28;20551;-61
2022/01/11 00:03:23;;;;;;;14.87;8.23;;;0.90;99.90;;;;;;5094908;28;20524;-62
2022/01/11 00:06:03;;;;;;;15.10;7.77;;;0.90;99.90;;;;;;5094065;28;20180;-62
2022/01/11 00:08:33;;;;;;;14.93;7.87;;;0.90;99.90;;;;;;5093857;28;20196;-62
2022/01/11 00:11:04;;;;;;;18.17;7.27;;;0.90;99.90;;;;;;5092754;28;20179;-62
2022/01/11 00:13:32;;;;;;;17.43;7.77;;;0.90;99.90;;;;;;5094273;28;20183;-61
2022/01/11 00:15:58;;;;;;;18.07;7.60;;;0.90;99.90;;;;;;5092701;28;20220;-63
2022/01/11 00:18:24;;;;;;;17.17;7.60;;;1.00;99.90;;;;;;5094062;28;20194;-63
2022/01/11 00:20:49;;;;;;;14.67;7.57;;;1.00;99.90;;;;;;5094281;28;20210;-63
2022/01/11 00:25:44;;;;;;;14.97;7.47;;;1.00;99.90;;;;;;5094401;28;20682;-63
2022/01/11 00:28:12;;;;;;;15.43;7.80;;;1.00;99.90;;;;;;5093778;28;20180;-63
2022/01/11 00:30:40;;;;;;;18.43;8.03;;;1.10;99.90;;;;;;5093842;28;20192;-62
2022/01/11 00:33:11;;;;;;;16.87;8.37;;;1.10;99.90;;;;;;5094013;28;20241;-63
2022/01/11 00:35:44;;;;;;;14.60;7.70;;;1.10;99.90;;;;;;5093813;28;20220;-62
2022/01/11 00:38:16;;;;;;;15.70;7.70;;;1.20;99.90;;;;;;5095101;28;20709;-63
2022/01/11 00:40:50;;;;;;;17.47;8.40;;;1.20;99.90;;;;;;5091087;28;20554;-63
2022/01/11 00:43:17;;;;;;;17.73;8.53;;;1.20;99.90;;;;;;5093499;28;20184;-62
2022/01/11 00:45:43;;;;;;;18.60;8.07;;;1.20;99.90;;;;;;5093556;28;20190;-63
2022/01/11 00:48:09;;;;;;;20.40;9.20;;;1.20;99.90;;;;;;5093153;28;20706;-62
2022/01/11 00:50:36;;;;;;;14.67;7.83;;;1.20;99.90;;;;;;5093022;28;20215;-63
2022/01/11 00:53:03;;;;;;;14.13;7.95;;;1.20;99.90;;;;;;5082195;28;20229;-62
2022/01/11 00:55:28;;;;;;;16.88;8.60;;;1.20;99.90;;;;;;5092829;28;20227;-63
2022/01/11 00:57:54;;;;;;;20.00;8.37;;;1.30;99.90;;;;;;5092964;28;20556;-63
2022/01/11 01:00:20;;;;;;;18.83;8.80;;;1.30;99.90;;;;;;5091377;28;20222;-63
2022/01/11 01:02:45;;;;;;;16.50;9.40;;;1.30;99.90;;;;;;5092755;28;20187;-63
2022/01/11 01:05:11;;;;;;;21.40;11.03;;;1.30;99.90;;;;;;5093235;28;20176;-63
2022/01/11 01:07:36;;;;;;;19.00;10.27;;;1.40;99.90;;;;;;5092769;28;20710;-63
2022/01/11 01:10:09;;;;;;;21.47;11.40;;;1.40;99.90;;;;;;5092439;28;20180;-63
2022/01/11 01:12:35;;;;;;;22.47;11.33;;;1.40;99.90;;;;;;5093059;28;20184;-63
2022/01/11 01:15:01;;;;;;;28.67;11.57;;;1.40;99.90;;;;;;5092462;28;20211;-63
2022/01/11 01:17:27;;;;;;;24.77;12.23;;;1.50;99.90;;;;;;5091102;28;20639;-62
2022/01/11 01:19:53;;;;;;;19.70;10.82;;;1.50;99.90;;;;;;5092603;28;20191;-62
2022/01/11 01:22:19;;;;;;;20.97;11.33;;;1.50;99.90;;;;;;5092257;28;20293;-62
2022/01/11 01:24:46;;;;;;;25.03;12.00;;;1.50;99.90;;;;;;5092843;28;20207;-62
2022/01/11 01:27:12;;;;;;;23.73;11.83;;;1.50;99.90;;;;;;5092376;28;20180;-63
2022/01/11 01:29:40;;;;;;;27.02;11.43;;;1.50;99.90;;;;;;5092372;28;20183;-62
2022/01/11 01:32:10;;;;;;;25.33;10.90;;;1.50;99.90;;;;;;5091616;28;20188;-62
2022/01/11 01:34:36;;;;;;;20.57;11.57;;;1.60;99.90;;;;;;5091882;28;20217;-62
2022/01/11 01:37:02;;;;;;;23.50;10.53;;;1.50;99.90;;;;;;5092160;28;20220;-63
2022/01/11 01:39:28;;;;;;;22.90;10.93;;;1.60;99.90;;;;;;5092202;28;20187;-62
2022/01/11 01:41:53;;;;;;;24.73;11.13;;;1.60;99.90;;;;;;5091809;28;20626;-62
2022/01/11 01:44:20;;;;;;;23.80;10.80;;;1.50;99.90;;;;;;5091202;28;20172;-62
2022/01/11 01:46:46;;;;;;;27.23;10.47;;;1.50;99.90;;;;;;5092364;28;20207;-62
2022/01/11 01:49:17;;;;;;;21.27;9.93;;;1.50;99.90;;;;;;5092294;28;20184;-62
2022/01/11 01:51:44;;;;;;;18.73;9.23;;;1.60;99.90;;;;;;5092097;28;20629;-62
2022/01/11 01:54:11;;;;;;;22.37;10.93;;;1.60;99.90;;;;;;5091944;28;20207;-62
2022/01/11 01:56:37;;;;;;;21.90;10.93;;;1.60;99.90;;;;;;5092185;28;20755;-62
2022/01/11 01:59:03;;;;;;;22.30;10.90;;;1.50;99.90;;;;;;5092048;28;20268;-63
2022/01/11 02:01:32;;;;;;;21.87;11.23;;;1.60;99.90;;;;;;5091768;28;20658;-62
2022/01/11 02:03:57;;;;;;;25.67;11.80;;;1.60;99.90;;;;;;5090458;28;20224;-62
2022/01/11 02:06:23;;;;;;;27.13;11.97;;;1.50;99.90;;;;;;5091913;28;20262;-62
2022/01/11 02:08:50;;;;;;;22.80;12.07;;;1.60;99.90;;;;;;5090884;28;20176;-62
2022/01/11 02:11:21;;;;;;;21.73;11.37;;;1.60;99.90;;;;;;5091657;28;20176;-62
2022/01/11 02:13:48;;;;;;;21.90;10.77;;;1.50;99.90;;;;;;5092133;28;20180;-62
2022/01/11 02:16:14;;;;;;;23.03;11.23;;;1.60;99.90;;;;;;5091663;28;20215;-62
2022/01/11 02:18:45;;;;;;;23.07;11.47;;;1.60;99.90;;;;;;5091898;28;20180;-63
2022/01/11 02:21:11;;;;;;;25.95;11.93;;;1.60;99.90;;;;;;5091243;28;20177;-62
2022/01/11 02:23:37;;;;;;;25.35;11.52;;;1.60;99.90;;;;;;5091669;28;20176;-62
2022/01/11 02:26:03;;;;;;;21.80;11.30;;;1.60;99.90;;;;;;5091711;28;20654;-62
2022/01/11 02:28:29;;;;;;;24.20;12.03;;;1.60;99.90;;;;;;5091603;28;20647;-63
2022/01/11 02:30:58;;;;;;;23.97;10.73;;;1.60;99.90;;;;;;5090726;28;20255;-63
2022/01/11 02:33:35;;;;;;;25.35;12.10;;;1.60;99.90;;;;;;5092016;28;20172;-63
2022/01/11 02:36:04;;;;;;;25.23;12.15;;;1.60;99.90;;;;;;5086455;28;20245;-63
2022/01/11 02:38:30;;;;;;;25.43;11.27;;;1.60;99.90;;;;;;5094527;28;20186;-63
2022/01/11 02:40:57;;;;;;;21.07;10.53;;;1.60;99.90;;;;;;5096106;28;20215;-63
2022/01/11 02:43:22;;;;;;;21.77;10.80;;;1.60;99.90;;;;;;5095840;28;20183;-63
2022/01/11 02:45:48;;;;;;;21.27;10.97;;;1.60;99.90;;;;;;5095789;28;20180;-63
2022/01/11 02:48:13;;;;;;;26.17;11.57;;;1.60;99.90;;;;;;5096162;28;20180;-63
2022/01/11 02:50:39;;;;;;;19.48;10.88;;;1.60;99.90;;;;;;5096173;28;20184;-63
2022/01/11 02:53:05;;;;;;;24.77;11.13;;;1.60;99.90;;;;;;5095612;28;20231;-63
2022/01/11 02:55:33;;;;;;;22.60;11.40;;;1.70;99.90;;;;;;5095962;28;20251;-63
2022/01/11 02:57:58;;;;;;;19.53;10.93;;;1.70;99.90;;;;;;5095479;28;20307;-63
2022/01/11 03:00:24;;;;;;;25.55;11.90;;;1.70;99.90;;;;;;5095572;28;20299;-63
2022/01/11 03:02:51;;;;;;;21.83;11.03;;;1.70;99.90;;;;;;5096029;28;20183;-63
2022/01/11 03:05:16;;;;;;;22.13;11.00;;;1.70;99.90;;;;;;5095398;28;20512;-63
2022/01/11 03:07:43;;;;;;;22.57;11.97;;;1.70;99.90;;;;;;5095860;28;20187;-62
2022/01/11 03:10:27;;;;;;;21.55;10.90;;;1.70;99.90;;;;;;5095270;28;20651;-63
2022/01/11 03:12:53;;;;;;;23.70;11.38;;;1.70;99.90;;;;;;5096602;28;20183;-62
2022/01/11 03:15:19;;;;;;;27.10;11.60;;;1.70;99.90;;;;;;5106367;28;20681;-63
2022/01/11 03:17:45;;;;;;;17.63;10.00;;;1.70;99.90;;;;;;5095458;28;20187;-62
2022/01/11 03:20:12;;;;;;;20.70;10.18;;;1.70;99.90;;;;;;5095832;28;20251;-62
2022/01/11 03:22:37;;;;;;;21.43;11.07;;;1.70;99.90;;;;;;5095395;28;20184;-62
2022/01/11 03:25:05;;;;;;;26.77;11.73;;;1.70;99.90;;;;;;5095440;28;20190;-62
2022/01/11 03:27:31;;;;;;;21.30;10.73;;;1.70;99.90;;;;;;5095840;28;20184;-62
2022/01/11 03:29:56;;;;;;;23.67;10.97;;;1.70;99.90;;;;;;5094436;28;20685;-63
2022/01/11 03:32:22;;;;;;;19.87;11.00;;;1.70;99.90;;;;;;5073890;28;20177;-63
2022/01/11 03:34:48;;;;;;;19.60;10.38;;;1.70;99.90;;;;;;5094700;28;20180;-62
2022/01/11 03:37:16;;;;;;;22.13;11.60;;;1.80;99.90;;;;;;5095321;28;20263;-62
2022/01/11 03:39:42;;;;;;;22.07;11.53;;;1.70;99.90;;;;;;5092844;28;20199;-63
2022/01/11 03:42:08;;;;;;;23.17;10.88;;;1.80;99.90;;;;;;5094592;28;20192;-62
2022/01/11 03:44:33;;;;;;;21.67;11.13;;;1.80;99.90;;;;;;5094026;28;20536;-62
2022/01/11 03:47:00;;;;;;;21.63;10.65;;;1.80;99.90;;;;;;5094173;28;20528;-62
2022/01/11 03:49:25;;;;;;;21.63;10.75;;;1.80;99.90;;;;;;5092347;28;20188;-63
2022/01/11 03:51:51;;;;;;;25.07;10.67;;;1.80;99.90;;;;;;5094273;28;20184;-63
2022/01/11 03:54:23;;;;;;;22.13;10.90;;;1.80;99.90;;;;;;5094997;28;20180;-62
2022/01/11 03:56:49;;;;;;;26.37;11.43;;;1.80;99.90;;;;;;5094722;28;20265;-63
2022/01/11 03:59:15;;;;;;;24.80;11.20;;;1.70;99.90;;;;;;5094304;28;20314;-63
2022/01/11 04:01:41;;;;;;;24.20;12.23;;;1.80;99.90;;;;;;5094533;28;20184;-62
2022/01/11 04:04:09;;;;;;;23.27;11.17;;;1.80;99.90;;;;;;5094021;28;20179;-62
2022/01/11 04:06:34;;;;;;;22.87;11.37;;;1.80;99.90;;;;;;5094373;28;20631;-62
2022/01/11 04:09:00;;;;;;;20.30;11.20;;;1.80;99.90;;;;;;5094551;28;20180;-62
2022/01/11 04:11:25;;;;;;;20.75;10.88;;;1.80;99.90;;;;;;5094408;28;20175;-62
2022/01/11 04:13:51;;;;;;;20.65;11.75;;;1.90;99.90;;;;;;5094168;28;20768;-62
2022/01/11 04:16:16;;;;;;;20.07;10.73;;;1.90;99.90;;;;;;5093884;28;20215;-62
2022/01/11 04:18:42;;;;;;;20.87;10.70;;;1.80;99.90;;;;;;5093857;28;20425;-62
2022/01/11 04:21:08;;;;;;;22.38;12.60;;;1.80;99.90;;;;;;5093160;28;20176;-62
2022/01/11 04:23:34;;;;;;;25.03;14.00;;;1.80;99.90;;;;;;5093515;28;20209;-62
2022/01/11 04:26:00;;;;;;;24.10;12.80;;;1.80;99.90;;;;;;5093954;28;20647;-62
2022/01/11 04:28:27;;;;;;;23.93;12.03;;;1.80;99.90;;;;;;5102757;28;20267;-62
2022/01/11 04:30:57;;;;;;;24.97;11.50;;;1.80;99.90;;;;;;5100195;28;20557;-62
2022/01/11 04:33:24;;;;;;;29.07;14.50;;;1.80;99.90;;;;;;5093778;28;20178;-62
2022/01/11 04:35:50;;;;;;;26.97;13.23;;;1.80;99.90;;;;;;5093377;28;20204;-62
2022/01/11 04:38:17;;;;;;;64.93;25.87;;;1.80;99.90;;;;;;5093400;28;20249;-62
2022/01/11 04:40:43;;;;;;;58.07;23.60;;;1.80;99.90;;;;;;5094077;28;20222;-63
2022/01/11 04:43:09;;;;;;;30.13;14.93;;;1.80;99.90;;;;;;5093208;28;20176;-62
2022/01/11 04:45:34;;;;;;;24.90;12.67;;;1.80;99.90;;;;;;5093830;28;20188;-62
2022/01/11 04:48:00;;;;;;;22.23;12.10;;;1.80;99.90;;;;;;5093266;28;20635;-62
2022/01/11 04:50:27;;;;;;;23.20;11.50;;;1.80;99.90;;;;;;5093393;28;20328;-62
2022/01/11 04:52:53;;;;;;;22.23;11.23;;;1.80;99.90;;;;;;5092768;28;20631;-62
2022/01/11 04:55:19;;;;;;;20.37;12.17;;;1.90;99.90;;;;;;5092369;28;20214;-61
2022/01/11 04:57:45;;;;;;;20.77;11.65;;;1.90;99.90;;;;;;5092912;28;20740;-61
2022/01/11 05:00:13;;;;;;;21.08;10.27;;;1.90;99.90;;;;;;5092367;28;20172;-62
2022/01/11 05:02:38;;;;;;;16.73;10.23;;;1.90;99.90;;;;;;5092779;28;20195;-62
2022/01/11 05:05:05;;;;;;;25.70;11.43;;;1.90;99.90;;;;;;5092196;28;20180;-62
2022/01/11 05:07:30;;;;;;;17.48;9.80;;;1.90;99.90;;;;;;5091106;28;20195;-60
2022/01/11 05:09:56;;;;;;;19.33;9.85;;;1.90;99.90;;;;;;5092916;28;20189;-61
2022/01/11 05:12:22;;;;;;;17.27;10.05;;;2.00;99.90;;;;;;5092652;28;20614;-61
2022/01/11 05:14:48;;;;;;;20.90;10.33;;;2.00;99.90;;;;;;5092856;28;20176;-59
2022/01/11 05:17:13;;;;;;;22.52;10.00;;;2.00;99.90;;;;;;5092986;28;20231;-59
2022/01/11 05:19:39;;;;;;;27.67;12.13;;;2.00;99.90;;;;;;5093011;28;20212;-60
2022/01/11 05:22:04;;;;;;;32.28;15.55;;;2.00;99.90;;;;;;5092656;28;20184;-59
2022/01/11 05:24:30;;;;;;;29.60;14.20;;;2.00;99.90;;;;;;5092540;28;20187;-63
2022/01/11 05:26:55;;;;;;;32.43;15.87;;;2.00;99.90;;;;;;5092723;28;20184;-60
2022/01/11 05:29:21;;;;;;;58.23;24.87;;;2.00;99.90;;;;;;5091821;28;20176;-59
2022/01/11 05:31:47;;;;;;;48.90;21.40;;;2.00;99.90;;;;;;5092650;28;20532;-60
2022/01/11 05:34:12;;;;;;;35.47;15.82;;;2.00;99.90;;;;;;5092973;28;20542;-60
2022/01/11 05:36:38;;;;;;;28.70;13.98;;;2.00;99.90;;;;;;5092375;28;20298;-60
2022/01/11 05:39:03;;;;;;;35.30;15.40;;;2.00;99.90;;;;;;5092646;28;20175;-61
2022/01/11 05:41:33;;;;;;;52.33;21.65;;;2.10;99.90;;;;;;5091223;28;20192;-59
2022/01/11 05:43:58;;;;;;;72.87;29.47;;;2.00;99.90;;;;;;5092847;28;20226;-60
2022/01/11 05:46:24;;;;;;;63.65;27.42;;;2.00;99.90;;;;;;5091666;28;20658;-61
2022/01/11 05:48:49;;;;;;;48.80;21.53;;;2.10;99.90;;;;;;5090070;28;20184;-63
2022/01/11 05:51:15;;;;;;;35.60;16.50;;;2.00;99.90;;;;;;5092751;28;20207;-60
2022/01/11 05:53:42;;;;;;;30.17;14.90;;;2.00;99.90;;;;;;5091988;28;20541;-66
2022/01/11 05:56:07;;;;;;;26.93;14.30;;;2.10;99.90;;;;;;5092312;28;20242;-68
2022/01/11 05:58:33;;;;;;;25.20;12.33;;;2.10;99.90;;;;;;5090764;28;20701;-67
2022/01/11 06:00:59;;;;;;;19.57;11.43;;;2.10;99.90;;;;;;5092413;28;20180;-66
2022/01/11 06:03:25;;;;;;;22.10;11.00;;;2.10;99.90;;;;;;5092100;28;20523;-66
2022/01/11 06:05:50;;;;;;;20.77;11.53;;;2.10;99.90;;;;;;5092398;28;20208;-61
2022/01/11 06:08:16;;;;;;;23.07;12.00;;;2.10;99.90;;;;;;5091944;28;20225;-61
2022/01/11 06:10:45;;;;;;;22.43;10.60;;;2.10;99.90;;;;;;5092133;28;20589;-61
2022/01/11 06:13:11;;;;;;;22.58;11.38;;;2.10;99.90;;;;;;5091042;28;20187;-61
2022/01/11 06:15:38;;;;;;;22.43;11.40;;;2.10;99.90;;;;;;5092093;28;20216;-61
2022/01/11 06:18:05;;;;;;;19.23;11.37;;;2.10;99.90;;;;;;5091786;28;20633;-61
2022/01/11 06:20:31;;;;;;;19.92;10.63;;;2.10;99.90;;;;;;5091944;28;20204;-61
2022/01/11 06:22:56;;;;;;;22.13;11.13;;;2.10;99.90;;;;;;5091476;28;20655;-61
2022/01/11 06:25:22;;;;;;;21.35;11.23;;;2.10;99.90;;;;;;5091914;28;20180;-61
2022/01/11 06:27:48;;;;;;;20.70;11.07;;;2.10;99.90;;;;;;5091925;28;20230;-61
2022/01/11 06:30:15;;;;;;;22.02;11.50;;;2.10;99.90;;;;;;5091702;28;20535;-61
2022/01/11 06:32:43;;;;;;;56.80;27.83;;;2.10;99.90;;;;;;5087460;28;20207;-60
2022/01/11 06:35:10;;;;;;;29.58;14.75;;;2.20;99.90;;;;;;5091525;28;20172;-61
2022/01/11 06:37:35;;;;;;;25.83;12.15;;;3.00;99.90;;;;;;5091997;28;20652;-61
2022/01/11 06:40:04;;;;;;;20.20;11.18;;;3.10;99.90;;;;;;5091707;28;20171;-61
2022/01/11 06:42:32;;;;;;;20.40;11.40;;;3.10;99.90;;;;;;5092117;28;20263;-62
2022/01/11 06:44:57;;;;;;;19.10;11.02;;;2.90;99.90;;;;;;5091881;28;20175;-62
2022/01/11 06:47:23;;;;;;;26.20;14.85;;;2.80;99.90;;;;;;5092000;28;20525;-62
2022/01/11 06:49:49;;;;;;;23.05;12.70;;;2.80;99.90;;;;;;5091872;28;20224;-62
2022/01/11 06:52:14;;;;;;;23.83;12.00;;;2.70;99.90;;;;;;5090832;28;20188;-62
2022/01/11 06:54:41;;;;;;;24.40;11.57;;;2.60;99.90;;;;;;5091964;28;20187;-63
2022/01/11 06:57:07;;;;;;;21.60;11.05;;;2.50;99.90;;;;;;5089883;28;20212;-63
2022/01/11 06:59:35;;;;;;;23.27;12.20;;;2.60;99.90;;;;;;5091878;28;20702;-64
2022/01/11 07:02:01;;;;;;;21.92;12.32;;;2.60;99.90;;;;;;5091019;28;20184;-64
2022/01/11 07:04:27;;;;;;;19.75;10.23;;;2.50;99.90;;;;;;5091678;28;20226;-63
2022/01/11 07:06:52;;;;;;;20.05;10.40;;;2.50;99.90;;;;;;5090702;28;20184;-64
2022/01/11 07:09:18;;;;;;;18.60;10.18;;;2.50;99.90;;;;;;5091048;28;20160;-64
2022/01/11 07:11:44;;;;;;;19.63;10.20;;;2.50;99.90;;;;;;5092161;28;20554;-65
2022/01/11 07:14:11;;;;;;;23.25;10.23;;;2.50;99.90;;;;;;5091901;28;20210;-65
2022/01/11 07:16:37;;;;;;;17.60;9.05;;;2.50;99.90;;;;;;5092319;28;20300;-63
2022/01/11 07:19:02;;;;;;;17.08;8.43;;;2.50;99.90;;;;;;5092061;28;20254;-62
2022/01/11 07:21:28;;;;;;;15.18;8.80;;;2.50;99.90;;;;;;5092142;28;20180;-63
2022/01/11 07:23:54;;;;;;;19.10;9.30;;;2.50;99.90;;;;;;5092035;28;20625;-63
2022/01/11 07:26:19;;;;;;;22.92;8.90;;;2.50;99.90;;;;;;5095624;28;20221;-63
2022/01/11 07:28:46;;;;;;;14.65;8.20;;;2.50;99.90;;;;;;5095651;28;20172;-63
2022/01/11 07:31:11;;;;;;;16.90;8.40;;;2.50;99.90;;;;;;5095557;28;20180;-63
2022/01/11 07:33:40;;;;;;;20.50;10.02;;;2.50;99.90;;;;;;5095631;28;20237;-63
2022/01/11 07:36:07;;;;;;;16.47;8.87;;;2.50;99.90;;;;;;5094117;28;20216;-63
2022/01/11 07:38:32;;;;;;;17.63;9.30;;;2.50;99.90;;;;;;5095500;28;20172;-63
2022/01/11 07:40:58;;;;;;;21.67;9.88;;;2.60;99.90;;;;;;5095375;28;20176;-63
2022/01/11 07:43:23;;;;;;;16.10;9.87;;;2.60;99.90;;;;;;5095472;28;20172;-63
2022/01/11 07:45:49;;;;;;;15.97;8.93;;;2.60;99.90;;;;;;5094013;28;20173;-63
2022/01/11 07:48:14;;;;;;;21.63;10.43;;;2.60;99.90;;;;;;5095214;28;20180;-63
2022/01/11 07:50:40;;;;;;;18.85;9.48;;;2.60;99.90;;;;;;5095104;28;20172;-64
2022/01/11 07:53:05;;;;;;;22.38;9.80;;;2.70;99.90;;;;;;5095170;28;20186;-63
2022/01/11 07:55:32;;;;;;;21.73;10.20;;;2.70;99.90;;;;;;5095158;28;20200;-63
2022/01/11 07:57:58;;;;;;;22.63;11.70;;;2.70;99.90;;;;;;5094806;28;20263;-63
2022/01/11 08:00:24;;;;;;;21.63;11.10;;;2.70;99.90;;;;;;5095211;28;20253;-64
2022/01/11 08:02:49;;;;;;;22.27;11.00;;;2.80;99.90;;;;;;5094995;28;20188;-64
2022/01/11 08:05:21;;;;;;;21.75;10.40;;;2.80;99.90;;;;;;5093783;28;20188;-65
2022/01/11 08:07:46;;;;;;;22.13;11.95;;;2.80;99.90;;;;;;5095011;28;20643;-64
2022/01/11 08:10:16;;;;;;;19.17;9.02;;;2.80;99.90;;;;;;5093621;28;20190;-64
2022/01/11 08:12:42;;;;;;;17.02;10.13;;;2.90;99.90;;;;;;5093586;28;20183;-64
2022/01/11 08:15:08;;;;;;;18.92;9.98;;;2.90;99.90;;;;;;5094587;28;20176;-64
2022/01/11 08:17:34;;;;;;;20.35;10.02;;;2.90;99.90;;;;;;5093476;28;20531;-64
2022/01/11 08:19:59;;;;;;;20.98;10.15;;;2.90;99.90;;;;;;5094557;28;20172;-64
2022/01/11 08:22:25;;;;;;;20.48;10.98;;;2.90;99.90;;;;;;5094547;28;20172;-64
2022/01/11 08:24:51;;;;;;;33.17;17.40;;;2.90;99.90;;;;;;5094588;28;20639;-64
2022/01/11 08:27:19;;;;;;;26.67;12.52;;;2.90;99.90;;;;;;5094484;28;20194;-64
2022/01/11 08:29:45;;;;;;;23.70;11.95;;;2.90;99.90;;;;;;5093308;28;20183;-63
2022/01/11 08:32:11;;;;;;;22.88;11.30;;;2.90;99.90;;;;;;5094412;28;20518;-64
2022/01/11 08:34:36;;;;;;;19.63;10.88;;;2.90;99.90;;;;;;5093065;28;20180;-63
2022/01/11 08:37:04;;;;;;;18.38;10.30;;;2.90;99.90;;;;;;5093463;28;20230;-63
2022/01/11 08:39:30;;;;;;;22.55;11.55;;;3.00;99.90;;;;;;5094393;28;20164;-63
2022/01/11 08:41:56;;;;;;;20.13;11.25;;;3.00;99.90;;;;;;5092968;28;20180;-63
2022/01/11 08:44:24;;;;;;;21.63;11.57;;;3.00;99.90;;;;;;5094093;28;20180;-63
2022/01/11 08:46:50;;;;;;;22.75;11.52;;;3.10;99.90;;;;;;5094082;28;20542;-64
2022/01/11 08:49:16;;;;;;;23.17;13.50;;;3.00;99.90;;;;;;5093941;28;20608;-64
2022/01/11 08:51:43;;;;;;;20.70;11.00;;;3.10;99.90;;;;;;5094088;28;20190;-63
2022/01/11 08:54:09;;;;;;;19.33;10.98;;;3.10;99.90;;;;;;5093934;28;20222;-63
2022/01/11 08:56:35;;;;;;;21.33;12.27;;;3.10;99.90;;;;;;5094000;28;20224;-64
2022/01/11 08:59:00;;;;;;;23.77;12.35;;;3.20;99.90;;;;;;5093503;28;20234;-63
2022/01/11 09:01:27;;;;;;;26.25;11.80;;;3.20;99.90;;;;;;5094013;28;20263;-63
2022/01/11 09:03:53;;;;;;;22.85;11.10;;;3.20;99.90;;;;;;5093801;28;20189;-64
2022/01/11 09:06:19;;;;;;;24.13;13.30;;;3.20;99.90;;;;;;5093662;28;20181;-64
2022/01/11 09:08:44;;;;;;;24.38;13.68;;;3.30;99.90;;;;;;5093814;28;20223;-63
2022/01/11 09:11:10;;;;;;;19.17;11.20;;;3.30;99.90;;;;;;5093668;28;20523;-64
2022/01/11 09:13:37;;;;;;;20.17;10.48;;;3.40;99.90;;;;;;5093581;28;20587;-63
2022/01/11 09:16:04;;;;;;;17.17;9.55;;;3.40;99.90;;;;;;5093371;28;20243;-64
2022/01/11 09:18:30;;;;;;;18.65;8.50;;;3.40;99.90;;;;;;5093516;28;20276;-64
2022/01/11 09:21:00;;;;;;;20.42;9.38;;;3.40;99.90;;;;;;5093527;28;20603;-64
2022/01/11 09:23:26;;;;;;;18.13;8.68;;;3.40;99.90;;;;;;5093426;28;20658;-64
2022/01/11 09:25:52;;;;;;;15.15;8.40;;;3.40;99.90;;;;;;5093540;28;20215;-64
2022/01/11 09:28:17;;;;;;;15.38;8.15;;;3.50;99.90;;;;;;5093224;28;20204;-64
2022/01/11 09:30:43;;;;;;;18.55;8.60;;;3.50;99.90;;;;;;5093333;28;20251;-64
2022/01/11 09:33:08;;;;;;;18.73;8.90;;;3.50;99.90;;;;;;5093154;28;20176;-65
2022/01/11 09:35:34;;;;;;;20.75;9.45;;;3.50;99.90;;;;;;5093354;28;20647;-64
2022/01/11 09:37:59;;;;;;;16.80;8.52;;;3.50;99.90;;;;;;5093154;28;20168;-64
2022/01/11 09:40:26;;;;;;;19.80;9.23;;;3.50;99.90;;;;;;5093106;28;20211;-64
2022/01/11 09:42:53;;;;;;;19.33;9.45;;;3.50;99.90;;;;;;5093098;28;20170;-64
2022/01/11 09:45:19;;;;;;;16.85;8.55;;;3.50;99.90;;;;;;5092970;28;20168;-64
2022/01/11 09:47:45;;;;;;;17.80;8.73;;;3.50;99.90;;;;;;5092985;28;20247;-64
2022/01/11 09:50:12;;;;;;;18.83;8.55;;;3.60;99.90;;;;;;5092943;28;20176;-64
2022/01/11 09:52:39;;;;;;;22.67;9.38;;;3.60;99.90;;;;;;5093013;28;20183;-64
2022/01/11 09:55:06;;;;;;;18.63;9.38;;;3.60;99.90;;;;;;5092772;28;20183;-64
2022/01/11 09:57:32;;;;;;;17.02;9.02;;;3.60;99.90;;;;;;5092924;28;20550;-64
2022/01/11 09:59:58;;;;;;;20.33;9.52;;;3.70;99.90;;;;;;5092555;28;20231;-64
2022/01/11 10:02:24;;;;;;;16.52;9.10;;;3.70;99.90;;;;;;5092854;28;20728;-64
2022/01/11 10:04:58;;;;;;;25.20;9.30;;;3.70;99.90;;;;;;5092802;28;20176;-64
2022/01/11 10:07:32;;;;;;;18.77;9.30;;;3.70;99.90;;;;;;5092889;28;20179;-64
2022/01/11 10:09:59;;;;;;;21.23;9.90;;;3.80;99.90;;;;;;5092581;28;20669;-64
2022/01/11 10:12:24;;;;;;;17.30;8.90;;;3.80;99.90;;;;;;5092693;28;20240;-64
2022/01/11 10:14:57;;;;;;;19.05;9.43;;;3.80;99.90;;;;;;5092633;28;20647;-64
2022/01/11 10:17:38;;;;;;;20.13;9.32;;;3.80;99.90;;;;;;5092415;28;20559;-64
2022/01/11 10:20:12;;;;;;;16.52;8.73;;;3.90;99.90;;;;;;5092556;28;20251;-64
2022/01/11 10:22:50;;;;;;;23.88;9.63;;;3.90;99.90;;;;;;5092524;28;20188;-64
2022/01/11 10:25:16;;;;;;;18.58;9.18;;;4.00;99.90;;;;;;5092464;28;20180;-64
2022/01/11 10:27:54;;;;;;;18.33;9.10;;;4.00;99.90;;;;;;5092429;28;20182;-64
2022/01/11 10:30:23;;;;;;;16.27;9.10;;;4.10;99.90;;;;;;5092362;28;20180;-64
2022/01/11 10:32:51;;;;;;;15.93;8.60;;;4.10;99.90;;;;;;5092410;28;20340;-63
2022/01/11 10:35:18;;;;;;;17.13;9.10;;;4.20;99.90;;;;;;5092215;28;20509;-64
2022/01/11 10:37:50;;;;;;;21.55;10.10;;;4.20;99.90;;;;;;5092369;28;20183;-64
2022/01/11 10:40:34;;;;;;;18.38;9.75;;;4.20;99.90;;;;;;5092251;28;20563;-64
2022/01/11 10:43:04;;;;;;;18.35;9.20;;;4.30;99.90;;;;;;5092222;28;20168;-64
2022/01/11 10:45:35;;;;;;;17.10;9.05;;;4.40;99.90;;;;;;5092290;28;20674;-64
2022/01/11 10:48:05;;;;;;;18.83;9.50;;;4.40;99.90;;;;;;5092222;28;20176;-64
2022/01/11 10:50:46;;;;;;;22.02;9.48;;;4.50;99.90;;;;;;5092374;28;20233;-63
2022/01/11 10:53:22;;;;;;;16.50;8.75;;;4.50;99.90;;;;;;5092204;28;20528;-64
2022/01/11 10:55:53;;;;;;;16.88;9.32;;;4.50;99.90;;;;;;5092111;28;20282;-64
2022/01/11 10:58:19;;;;;;;15.02;8.32;;;4.60;99.90;;;;;;5092218;28;20277;-63
2022/01/11 11:00:50;;;;;;;21.55;10.73;;;4.60;99.90;;;;;;5096253;28;20666;-64
2022/01/11 11:03:16;;;;;;;19.23;10.18;;;4.70;99.90;;;;;;5096184;28;20282;-64
2022/01/11 11:05:46;;;;;;;20.38;9.40;;;4.70;99.90;;;;;;5096117;28;20624;-64
2022/01/11 11:08:15;;;;;;;15.23;8.80;;;4.70;99.90;;;;;;5096056;28;20175;-64
2022/01/11 11:10:46;;;;;;;18.00;9.40;;;4.80;99.90;;;;;;5096035;28;20172;-63
2022/01/11 11:13:42;;;;;;;21.05;10.20;;;4.80;99.90;;;;;;5096296;28;20524;-63
2022/01/11 11:16:16;;;;;;;19.95;9.27;;;4.90;99.90;;;;;;5095403;28;20223;-63
2022/01/11 11:18:47;;;;;;;15.02;8.55;;;4.90;99.90;;;;;;5095890;28;20172;-63
2022/01/11 11:21:34;;;;;;;17.25;10.35;;;5.00;99.90;;;;;;5095729;28;20165;-64
2022/01/11 11:24:10;;;;;;;34.53;16.92;;;5.10;99.90;;;;;;5095705;28;20578;-63
2022/01/11 11:26:38;;;;;;;19.17;10.80;;;5.20;99.90;;;;;;5095871;28;20212;-63
2022/01/11 11:29:10;;;;;;;22.45;10.77;;;5.30;99.90;;;;;;5095570;28;20200;-64
2022/01/11 11:31:37;;;;;;;17.25;8.35;;;5.40;99.90;;;;;;5095337;28;20269;-63
2022/01/11 11:34:04;;;;;;;16.60;9.60;;;5.40;99.90;;;;;;5095295;28;20185;-63
2022/01/11 11:36:30;;;;;;;12.27;7.60;;;5.50;99.90;;;;;;5095340;28;20215;-63
2022/01/11 11:39:06;;;;;;;16.52;8.25;;;5.50;99.90;;;;;;5095371;28;20179;-63
2022/01/11 11:41:33;;;;;;;16.23;9.15;;;5.50;99.90;;;;;;5095250;28;20760;-63
2022/01/11 11:44:13;;;;;;;21.73;11.07;;;5.70;99.90;;;;;;5095138;28;20168;-63
2022/01/11 11:46:51;;;;;;;16.23;8.95;;;5.70;99.90;;;;;;5095306;28;20696;-63
2022/01/11 11:49:40;;;;;;;17.52;9.65;;;5.80;99.90;;;;;;5095121;28;20190;-63
2022/01/11 11:52:31;;;;;;;18.58;8.50;;;5.90;99.90;;;;;;5095102;28;20176;-63
2022/01/11 11:55:21;;;;;;;15.55;8.30;;;6.00;99.90;;;;;;5095219;28;20233;-63
2022/01/11 11:57:50;;;;;;;15.70;8.13;;;6.10;99.90;;;;;;5094915;28;20663;-63
2022/01/11 12:00:26;;;;;;;19.23;8.55;;;6.10;99.90;;;;;;5095209;28;20188;-63
2022/01/11 12:03:17;;;;;;;16.40;8.85;;;6.10;99.90;;;;;;5095045;28;20167;-63
2022/01/11 12:05:47;;;;;;;16.10;8.73;;;6.20;99.90;;;;;;5095231;28;20570;-63
2022/01/11 12:08:42;;;;;;;15.13;7.78;;;6.30;99.90;;;;;;5094857;28;20190;-63
2022/01/11 12:11:15;;;;;;;12.13;7.53;;;6.30;99.90;;;;;;5093578;28;20654;-63
2022/01/11 12:13:51;;;;;;;17.58;8.38;;;6.30;99.90;;;;;;5093439;28;20754;-63
2022/01/11 12:16:25;;;;;;;13.80;7.85;;;6.30;99.90;;;;;;5094580;28;20314;-63
2022/01/11 12:19:10;;;;;;;16.02;8.13;;;6.30;99.90;;;;;;5094639;28;20175;-63
2022/01/11 12:22:05;;;;;;;17.38;7.18;;;6.30;99.90;;;;;;5094759;28;20195;-63
2022/01/11 12:24:37;;;;;;;11.73;6.57;;;6.30;99.90;;;;;;5094425;28;20255;-64
2022/01/11 12:27:03;;;;;;;14.13;6.97;;;6.30;99.90;;;;;;5094397;28;20184;-64
2022/01/11 12:29:29;;;;;;;10.75;6.30;;;6.30;99.90;;;;;;5094555;28;20259;-65
2022/01/11 12:32:04;;;;;;;12.55;6.20;;;6.20;99.90;;;;;;5093188;28;20670;-64
2022/01/11 12:34:48;;;;;;;10.95;6.38;;;6.20;99.90;;;;;;5094336;28;20665;-65
2022/01/11 12:37:27;;;;;;;12.45;7.03;;;6.20;99.90;;;;;;5094104;28;20571;-65
2022/01/11 12:40:04;;;;;;;14.10;7.88;;;6.30;99.90;;;;;;5094245;28;20180;-65
2022/01/11 12:42:30;;;;;;;11.60;6.75;;;6.30;99.90;;;;;;5094331;28;20178;-64
2022/01/11 12:47:43;;;;;;;12.30;5.80;;;6.20;99.90;;;;;;5094090;28;20167;-65
2022/01/11 12:50:14;;;;;;;14.50;8.05;;;6.10;99.90;;;;;;5094086;28;20184;-65